createdAt,value
2018-02-10T00:00:09.680Z,84.7
2018-02-10T00:01:10.339Z,84.8
2018-02-10T00:02:11.047Z,84.5
2018-02-10T00:03:11.706Z,84.9
2018-02-10T00:04:12.365Z,84.6
2018-02-10T00:05:13.025Z,84.7
2018-02-10T00:06:13.683Z,84.7
2018-02-10T00:07:14.341Z,84.1
2018-02-10T00:08:15.001Z,84.9
2018-02-10T00:09:15.661Z,84.7
2018-02-10T00:10:16.354Z,84.6
2018-02-10T00:11:17.011Z,84.4
2018-02-10T00:12:17.669Z,84.5
2018-02-10T00:13:18.328Z,84.7
2018-02-10T00:14:18.990Z,84.5
2018-02-10T00:15:19.643Z,84.7
2018-02-10T00:16:20.301Z,84.7
2018-02-10T00:17:20.958Z,84.6
2018-02-10T00:18:21.617Z,84.5
2018-02-10T00:19:22.275Z,85.0
2018-02-10T00:20:22.933Z,84.8
2018-02-10T00:21:23.598Z,84.8
2018-02-10T00:22:24.252Z,84.4
2018-02-10T00:23:24.909Z,84.8
2018-02-10T00:24:25.568Z,84.7
2018-02-10T00:25:26.229Z,84.8
2018-02-10T00:26:26.889Z,84.7
2018-02-10T00:27:27.549Z,84.5
2018-02-10T00:28:28.209Z,84.7
2018-02-10T00:29:28.866Z,84.7
2018-02-10T00:30:29.525Z,84.8
2018-02-10T00:31:30.182Z,85.0
2018-02-10T00:32:30.840Z,85.1
2018-02-10T00:33:31.497Z,84.8
2018-02-10T00:34:32.155Z,84.5
2018-02-10T00:35:32.814Z,84.7
2018-02-10T00:36:33.510Z,84.0
2018-02-10T00:37:34.169Z,84.7
2018-02-10T00:38:34.826Z,84.5
2018-02-10T00:39:35.485Z,84.2
2018-02-10T00:40:36.143Z,84.4
2018-02-10T00:41:36.801Z,84.3
2018-02-10T00:42:37.459Z,83.7
2018-02-10T00:43:38.119Z,83.7
2018-02-10T00:44:38.778Z,84.0
2018-02-10T00:45:39.440Z,84.2
2018-02-10T00:46:40.134Z,84.1
2018-02-10T00:47:40.843Z,84.2
2018-02-10T00:48:41.549Z,83.7
2018-02-10T00:49:42.158Z,84.1
2018-02-10T00:50:42.819Z,84.3
2018-02-10T00:51:43.514Z,84.2
2018-02-10T00:52:44.173Z,84.1
2018-02-10T00:53:44.830Z,84.0
2018-02-10T00:54:45.527Z,84.2
2018-02-10T00:55:46.145Z,84.3
2018-02-10T00:56:46.841Z,84.2
2018-02-10T00:57:47.499Z,84.0
2018-02-10T00:58:48.159Z,84.1
2018-02-10T00:59:48.817Z,84.0
2018-02-10T01:00:49.476Z,84.3
2018-02-10T01:01:50.134Z,84.4
2018-02-10T01:02:50.793Z,84.2
2018-02-10T01:03:51.451Z,84.0
2018-02-10T01:04:52.108Z,84.3
2018-02-10T01:05:52.766Z,83.6
2018-02-10T01:06:53.424Z,83.7
2018-02-10T01:07:54.085Z,84.0
2018-02-10T01:08:54.741Z,83.7
2018-02-10T01:09:55.399Z,83.7
2018-02-10T01:10:56.057Z,84.0
2018-02-10T01:11:56.716Z,84.0
2018-02-10T01:12:57.423Z,83.7
2018-02-10T01:13:58.084Z,84.1
2018-02-10T01:14:58.742Z,83.9
2018-02-10T01:15:59.401Z,83.9
2018-02-10T01:17:00.067Z,83.9
2018-02-10T01:18:00.721Z,83.8
2018-02-10T01:19:01.374Z,83.7
2018-02-10T01:20:02.033Z,83.7
2018-02-10T01:21:02.728Z,83.8
2018-02-10T01:22:03.387Z,83.7
2018-02-10T01:23:04.046Z,83.7
2018-02-10T01:24:04.704Z,83.6
2018-02-10T01:25:05.362Z,83.6
2018-02-10T01:26:06.021Z,83.6
2018-02-10T01:27:06.679Z,83.8
2018-02-10T01:28:07.337Z,83.8
2018-02-10T01:29:07.996Z,83.6
2018-02-10T01:30:08.656Z,83.7
2018-02-10T01:31:09.316Z,83.1
2018-02-10T01:32:09.974Z,83.0
2018-02-10T01:33:10.635Z,83.1
2018-02-10T01:34:11.293Z,83.9
2018-02-10T01:35:11.951Z,83.0
2018-02-10T01:36:12.608Z,83.1
2018-02-10T01:37:13.267Z,83.1
2018-02-10T01:38:13.926Z,83.1
2018-02-10T01:39:14.584Z,83.1
2018-02-10T01:40:15.243Z,83.2
2018-02-10T01:41:15.900Z,83.1
2018-02-10T01:42:16.560Z,83.1
2018-02-10T01:43:17.220Z,83.2
2018-02-10T01:44:17.912Z,83.1
2018-02-10T01:45:18.572Z,83.2
2018-02-10T01:46:19.230Z,83.1
2018-02-10T01:47:19.888Z,83.2
2018-02-10T01:48:20.546Z,83.2
2018-02-10T01:49:21.204Z,83.1
2018-02-10T01:50:21.862Z,83.3
2018-02-10T01:51:22.522Z,82.8
2018-02-10T01:52:23.183Z,83.2
2018-02-10T01:53:23.837Z,83.1
2018-02-10T01:54:24.498Z,83.1
2018-02-10T01:55:25.192Z,83.1
2018-02-10T01:56:25.850Z,83.2
2018-02-10T01:57:26.510Z,83.5
2018-02-10T01:58:27.256Z,83.6
2018-02-10T01:59:27.968Z,83.7
2018-02-10T02:00:28.576Z,83.1
2018-02-10T02:01:29.236Z,83.7
2018-02-10T02:02:29.895Z,83.4
2018-02-10T02:03:30.556Z,83.6
2018-02-10T02:04:31.214Z,83.7
2018-02-10T02:05:31.912Z,83.8
2018-02-10T02:06:32.570Z,83.7
2018-02-10T02:07:33.229Z,83.7
2018-02-10T02:08:33.887Z,83.7
2018-02-10T02:09:34.545Z,84.1
2018-02-10T02:10:35.203Z,84.0
2018-02-10T02:11:35.862Z,83.6
2018-02-10T02:12:36.521Z,84.0
2018-02-10T02:13:37.179Z,83.8
2018-02-10T02:14:37.840Z,83.8
2018-02-10T02:15:38.499Z,84.0
2018-02-10T02:16:39.158Z,83.7
2018-02-10T02:17:39.817Z,83.6
2018-02-10T02:18:40.476Z,83.4
2018-02-10T02:19:41.134Z,83.6
2018-02-10T02:20:41.792Z,83.7
2018-02-10T02:21:42.450Z,83.6
2018-02-10T02:22:43.109Z,83.4
2018-02-10T02:23:43.769Z,83.7
2018-02-10T02:24:44.464Z,83.7
2018-02-10T02:25:45.122Z,83.8
2018-02-10T02:26:45.783Z,83.8
2018-02-10T02:27:46.439Z,83.6
2018-02-10T02:28:47.097Z,83.4
2018-02-10T02:29:47.756Z,83.6
2018-02-10T02:30:48.414Z,83.4
2018-02-10T02:31:49.073Z,83.6
2018-02-10T02:32:49.732Z,83.7
2018-02-10T02:33:50.393Z,83.1
2018-02-10T02:34:51.050Z,83.4
2018-02-10T02:35:51.711Z,83.1
2018-02-10T02:36:52.372Z,82.9
2018-02-10T02:37:53.071Z,83.2
2018-02-10T02:38:53.731Z,83.3
2018-02-10T02:39:54.391Z,83.2
2018-02-10T02:40:55.050Z,83.2
2018-02-10T02:41:55.718Z,82.7
2018-02-10T02:42:56.367Z,83.5
2018-02-10T02:43:57.026Z,83.4
2018-02-10T02:44:57.685Z,83.1
2018-02-10T02:45:58.342Z,83.1
2018-02-10T02:46:59.000Z,83.1
2018-02-10T02:47:59.660Z,83.0
2018-02-10T02:49:00.319Z,83.2
2018-02-10T02:50:00.978Z,83.5
2018-02-10T02:51:01.682Z,83.2
2018-02-10T02:52:02.370Z,83.1
2018-02-10T02:53:03.030Z,82.8
2018-02-10T02:54:03.744Z,83.1
2018-02-10T02:55:04.344Z,83.1
2018-02-10T02:56:05.003Z,83.8
2018-02-10T02:57:05.663Z,83.6
2018-02-10T02:58:06.359Z,83.6
2018-02-10T02:59:07.016Z,83.7
2018-02-10T03:00:07.675Z,83.4
2018-02-10T03:01:08.333Z,83.7
2018-02-10T03:02:09.029Z,83.4
2018-02-10T03:03:09.687Z,83.8
2018-02-10T03:04:10.346Z,84.0
2018-02-10T03:05:11.004Z,83.7
2018-02-10T03:06:11.662Z,83.6
2018-02-10T03:07:12.319Z,83.5
2018-02-10T03:08:12.977Z,83.9
2018-02-10T03:09:13.635Z,84.1
2018-02-10T03:10:14.295Z,83.8
2018-02-10T03:11:14.989Z,83.6
2018-02-10T03:12:15.649Z,83.8
2018-02-10T03:13:16.307Z,83.4
2018-02-10T03:14:16.965Z,83.6
2018-02-10T03:15:17.624Z,83.5
2018-02-10T03:16:18.283Z,83.8
2018-02-10T03:17:18.942Z,83.8
2018-02-10T03:18:19.602Z,84.1
2018-02-10T03:19:20.262Z,83.9
2018-02-10T03:20:20.920Z,84.3
2018-02-10T03:21:21.579Z,84.9
2018-02-10T03:22:22.237Z,84.2
2018-02-10T03:23:22.898Z,84.1
2018-02-10T03:24:23.555Z,84.3
2018-02-10T03:25:24.213Z,84.1
2018-02-10T03:26:24.870Z,84.8
2018-02-10T03:27:25.528Z,84.7
2018-02-10T03:28:26.186Z,84.7
2018-02-10T03:29:26.906Z,84.7
2018-02-10T03:30:27.592Z,84.7
2018-02-10T03:31:28.249Z,84.7
2018-02-10T03:32:28.906Z,84.7
2018-02-10T03:33:29.565Z,84.8
2018-02-10T03:34:30.224Z,85.1
2018-02-10T03:35:30.884Z,84.9
2018-02-10T03:36:31.544Z,84.7
2018-02-10T03:37:32.206Z,84.8
2018-02-10T03:38:32.903Z,84.7
2018-02-10T03:39:33.562Z,84.6
2018-02-10T03:40:34.223Z,84.7
2018-02-10T03:41:34.881Z,84.9
2018-02-10T03:42:35.540Z,84.9
2018-02-10T03:43:36.197Z,84.8
2018-02-10T03:44:36.857Z,84.7
2018-02-10T03:45:37.514Z,84.5
2018-02-10T03:46:38.173Z,84.5
2018-02-10T03:47:38.832Z,85.1
2018-02-10T03:48:39.492Z,85.1
2018-02-10T03:49:40.151Z,84.8
2018-02-10T03:50:40.811Z,84.6
2018-02-10T03:51:41.470Z,84.5
2018-02-10T03:52:42.129Z,84.7
2018-02-10T03:53:42.788Z,84.5
2018-02-10T03:54:43.484Z,84.9
2018-02-10T03:55:44.143Z,84.9
2018-02-10T03:56:44.802Z,84.9
2018-02-10T03:57:45.462Z,84.9
2018-02-10T03:58:46.118Z,85.2
2018-02-10T03:59:46.776Z,85.6
2018-02-10T04:00:47.434Z,85.6
2018-02-10T04:01:48.092Z,85.6
2018-02-10T04:02:48.751Z,85.8
2018-02-10T04:03:49.409Z,85.3
2018-02-10T04:04:50.105Z,85.3
2018-02-10T04:05:50.763Z,85.5
2018-02-10T04:06:51.422Z,85.3
2018-02-10T04:07:52.080Z,84.9
2018-02-10T04:08:52.738Z,84.9
2018-02-10T04:09:53.398Z,85.2
2018-02-10T04:10:54.092Z,84.9
2018-02-10T04:11:54.751Z,84.9
2018-02-10T04:12:55.409Z,84.9
2018-02-10T04:13:56.068Z,84.6
2018-02-10T04:14:56.727Z,84.6
2018-02-10T04:15:57.390Z,84.5
2018-02-10T04:16:58.043Z,84.5
2018-02-10T04:17:58.739Z,84.5
2018-02-10T04:18:59.435Z,84.7
2018-02-10T04:20:00.092Z,84.8
2018-02-10T04:21:00.750Z,84.8
2018-02-10T04:22:01.408Z,84.8
2018-02-10T04:23:02.067Z,85.0
2018-02-10T04:24:02.725Z,84.6
2018-02-10T04:25:03.384Z,84.8
2018-02-10T04:26:04.044Z,84.5
2018-02-10T04:27:04.700Z,84.6
2018-02-10T04:28:05.360Z,85.0
2018-02-10T04:29:06.018Z,84.7
2018-02-10T04:30:06.681Z,84.8
2018-02-10T04:31:07.337Z,84.6
2018-02-10T04:32:07.998Z,84.9
2018-02-10T04:33:08.658Z,85.1
2018-02-10T04:34:09.316Z,84.9
2018-02-10T04:35:09.975Z,84.9
2018-02-10T04:36:10.634Z,85.0
2018-02-10T04:37:11.293Z,84.9
2018-02-10T04:38:11.950Z,84.9
2018-02-10T04:39:12.608Z,84.9
2018-02-10T04:40:13.266Z,84.8
2018-02-10T04:41:13.925Z,85.2
2018-02-10T04:42:14.582Z,85.0
2018-02-10T04:43:15.241Z,84.8
2018-02-10T04:44:15.899Z,84.9
2018-02-10T04:45:16.558Z,84.9
2018-02-10T04:46:17.216Z,85.0
2018-02-10T04:47:17.878Z,85.2
2018-02-10T04:48:18.536Z,84.9
2018-02-10T04:49:19.196Z,85.3
2018-02-10T04:50:19.854Z,85.4
2018-02-10T04:51:20.512Z,85.1
2018-02-10T04:52:21.170Z,85.5
2018-02-10T04:53:21.829Z,85.3
2018-02-10T04:54:22.487Z,85.2
2018-02-10T04:55:23.194Z,85.5
2018-02-10T04:56:23.853Z,85.6
2018-02-10T04:57:24.513Z,85.8
2018-02-10T04:58:25.174Z,85.8
2018-02-10T04:59:25.835Z,85.3
2018-02-10T05:00:26.501Z,84.6
2018-02-10T05:01:27.153Z,85.2
2018-02-10T05:02:27.812Z,85.4
2018-02-10T05:03:28.469Z,85.6
2018-02-10T05:04:29.128Z,85.6
2018-02-10T05:05:29.786Z,85.9
2018-02-10T05:06:30.445Z,86.2
2018-02-10T05:07:31.105Z,86.1
2018-02-10T05:08:31.763Z,85.8
2018-02-10T05:09:32.422Z,85.7
2018-02-10T05:10:33.083Z,85.8
2018-02-10T05:11:33.743Z,85.1
2018-02-10T05:12:34.400Z,85.5
2018-02-10T05:13:35.058Z,85.4
2018-02-10T05:14:35.716Z,85.6
2018-02-10T05:15:36.375Z,85.5
2018-02-10T05:16:37.034Z,85.4
2018-02-10T05:17:37.692Z,85.7
2018-02-10T05:18:38.351Z,85.3
2018-02-10T05:19:39.009Z,85.4
2018-02-10T05:20:39.669Z,85.6
2018-02-10T05:21:40.326Z,85.2
2018-02-10T05:22:40.988Z,85.0
2018-02-10T05:23:41.643Z,85.0
2018-02-10T05:24:42.305Z,85.2
2018-02-10T05:25:42.966Z,85.3
2018-02-10T05:26:43.625Z,85.1
2018-02-10T05:27:44.298Z,85.6
2018-02-10T05:28:44.943Z,85.4
2018-02-10T05:29:45.602Z,85.6
2018-02-10T05:30:46.259Z,85.1
2018-02-10T05:31:46.917Z,84.9
2018-02-10T05:32:47.575Z,84.9
2018-02-10T05:33:48.271Z,84.9
2018-02-10T05:34:48.929Z,84.9
2018-02-10T05:35:49.588Z,84.9
2018-02-10T05:36:50.245Z,85.0
2018-02-10T05:37:50.904Z,84.7
2018-02-10T05:38:51.562Z,84.6
2018-02-10T05:39:52.219Z,84.9
2018-02-10T05:40:52.877Z,85.0
2018-02-10T05:41:53.535Z,85.0
2018-02-10T05:42:54.194Z,84.9
2018-02-10T05:43:54.853Z,84.8
2018-02-10T05:44:55.512Z,84.9
2018-02-10T05:45:56.174Z,84.8
2018-02-10T05:46:56.829Z,84.6
2018-02-10T05:47:57.489Z,84.4
2018-02-10T05:48:58.148Z,84.7
2018-02-10T05:49:58.806Z,85.0
2018-02-10T05:50:59.465Z,84.7
2018-02-10T05:52:00.124Z,85.0
2018-02-10T05:53:00.789Z,84.9
2018-02-10T05:54:01.441Z,84.9
2018-02-10T05:55:02.099Z,85.0
2018-02-10T05:56:02.757Z,85.0
2018-02-10T05:57:03.415Z,84.9
2018-02-10T05:58:04.073Z,84.9
2018-02-10T05:59:04.731Z,84.7
2018-02-10T06:00:05.391Z,84.6
2018-02-10T06:01:06.047Z,85.0
2018-02-10T06:02:06.705Z,85.0
2018-02-10T06:03:07.365Z,85.0
2018-02-10T06:04:08.026Z,84.9
2018-02-10T06:05:08.685Z,85.0
2018-02-10T06:06:09.346Z,84.8
2018-02-10T06:07:10.006Z,85.0
2018-02-10T06:08:10.663Z,85.0
2018-02-10T06:09:11.321Z,84.9
2018-02-10T06:10:11.980Z,84.8
2018-02-10T06:11:12.637Z,84.6
2018-02-10T06:12:13.296Z,84.7
2018-02-10T06:13:13.955Z,84.8
2018-02-10T06:14:14.613Z,84.8
2018-02-10T06:15:15.276Z,84.6
2018-02-10T06:16:15.932Z,84.7
2018-02-10T06:17:16.590Z,84.8
2018-02-10T06:18:17.249Z,84.6
2018-02-10T06:19:17.908Z,84.9
2018-02-10T06:20:18.569Z,84.8
2018-02-10T06:21:19.226Z,84.9
2018-02-10T06:22:19.884Z,84.2
2018-02-10T06:23:20.541Z,84.1
2018-02-10T06:24:21.200Z,84.1
2018-02-10T06:25:21.859Z,84.8
2018-02-10T06:26:22.518Z,84.8
2018-02-10T06:27:23.177Z,84.7
2018-02-10T06:28:23.836Z,84.9
2018-02-10T06:29:24.494Z,84.9
2018-02-10T06:30:25.154Z,84.9
2018-02-10T06:31:25.814Z,84.6
2018-02-10T06:32:26.476Z,84.6
2018-02-10T06:33:27.139Z,84.9
2018-02-10T06:34:27.798Z,85.1
2018-02-10T06:35:28.458Z,84.9
2018-02-10T06:36:29.117Z,84.9
2018-02-10T06:37:29.779Z,84.6
2018-02-10T06:38:30.474Z,84.9
2018-02-10T06:39:31.134Z,84.6
2018-02-10T06:40:31.793Z,84.8
2018-02-10T06:41:32.454Z,84.8
2018-02-10T06:42:33.113Z,84.2
2018-02-10T06:43:33.774Z,84.1
2018-02-10T06:44:34.434Z,84.6
2018-02-10T06:45:35.093Z,84.7
2018-02-10T06:46:35.752Z,85.1
2018-02-10T06:47:36.410Z,84.9
2018-02-10T06:48:37.071Z,84.8
2018-02-10T06:49:37.729Z,84.8
2018-02-10T06:50:38.390Z,84.8
2018-02-10T06:51:39.053Z,84.8
2018-02-10T06:52:39.715Z,84.6
2018-02-10T06:53:40.376Z,84.8
2018-02-10T06:54:41.036Z,84.9
2018-02-10T06:55:41.699Z,84.8
2018-02-10T06:56:42.357Z,84.3
2018-02-10T06:57:43.019Z,84.3
2018-02-10T06:58:43.681Z,84.8
2018-02-10T06:59:44.343Z,85.0
2018-02-10T07:00:45.001Z,84.1
2018-02-10T07:01:45.662Z,84.4
2018-02-10T07:02:46.323Z,83.6
2018-02-10T07:03:46.985Z,83.6
2018-02-10T07:04:47.648Z,84.3
2018-02-10T07:05:48.310Z,84.2
2018-02-10T07:06:48.970Z,83.9
2018-02-10T07:07:49.632Z,84.3
2018-02-10T07:08:50.331Z,84.0
2018-02-10T07:09:50.994Z,84.2
2018-02-10T07:10:51.656Z,82.5
2018-02-10T07:11:52.318Z,83.0
2018-02-10T07:12:53.017Z,83.8
2018-02-10T07:13:53.679Z,83.5
2018-02-10T07:14:54.341Z,84.4
2018-02-10T07:15:55.005Z,84.0
2018-02-10T07:16:55.667Z,84.0
2018-02-10T07:17:56.329Z,84.1
2018-02-10T07:18:56.996Z,84.6
2018-02-10T07:19:57.654Z,84.7
2018-02-10T07:20:58.315Z,85.1
2018-02-10T07:21:58.979Z,85.0
2018-02-10T07:22:59.679Z,84.0
2018-02-10T07:24:00.340Z,84.5
2018-02-10T07:25:01.013Z,84.1
2018-02-10T07:26:01.677Z,83.8
2018-02-10T07:27:02.338Z,83.8
2018-02-10T07:28:03.002Z,83.6
2018-02-10T07:29:03.664Z,83.4
2018-02-10T07:30:04.325Z,83.7
2018-02-10T07:31:04.986Z,83.9
2018-02-10T07:32:05.699Z,83.2
2018-02-10T07:33:06.360Z,83.5
2018-02-10T07:34:07.023Z,82.5
2018-02-10T07:35:07.684Z,82.8
2018-02-10T07:36:08.347Z,82.6
2018-02-10T07:37:09.008Z,82.6
2018-02-10T07:38:09.669Z,83.1
2018-02-10T07:39:10.332Z,83.0
2018-02-10T07:40:10.995Z,82.7
2018-02-10T07:41:11.659Z,82.7
2018-02-10T07:42:12.322Z,82.4
2018-02-10T07:43:12.985Z,82.4
2018-02-10T07:44:13.648Z,82.8
2018-02-10T07:45:14.312Z,82.6
2018-02-10T07:46:14.983Z,81.9
2018-02-10T07:47:15.637Z,82.1
2018-02-10T07:48:16.302Z,81.9
2018-02-10T07:49:16.968Z,82.3
2018-02-10T07:50:17.628Z,81.8
2018-02-10T07:51:18.292Z,81.6
2018-02-10T07:52:18.954Z,81.4
2018-02-10T07:53:19.616Z,81.3
2018-02-10T07:54:20.280Z,81.4
2018-02-10T07:55:20.944Z,81.1
2018-02-10T07:56:21.608Z,81.0
2018-02-10T07:57:22.271Z,80.3
2018-02-10T07:58:22.934Z,80.1
2018-02-10T07:59:23.599Z,80.2
2018-02-10T08:00:24.261Z,80.7
2018-02-10T08:01:24.924Z,79.9
2018-02-10T08:02:25.588Z,80.0
2018-02-10T08:03:26.254Z,79.9
2018-02-10T08:04:26.918Z,79.7
2018-02-10T08:05:27.582Z,79.2
2018-02-10T08:06:28.247Z,79.4
2018-02-10T08:07:28.949Z,79.1
2018-02-10T08:08:29.612Z,78.7
2018-02-10T08:09:30.274Z,78.5
2018-02-10T08:10:30.940Z,77.8
2018-02-10T08:11:31.605Z,78.2
2018-02-10T08:12:32.268Z,78.0
2018-02-10T08:13:32.932Z,77.9
2018-02-10T08:14:33.597Z,77.9
2018-02-10T08:15:34.260Z,77.5
2018-02-10T08:16:34.925Z,77.8
2018-02-10T08:17:35.588Z,78.0
2018-02-10T08:18:36.252Z,77.3
2018-02-10T08:19:36.916Z,77.4
2018-02-10T08:20:37.580Z,77.6
2018-02-10T08:21:38.244Z,77.4
2018-02-10T08:22:38.945Z,77.5
2018-02-10T08:23:39.608Z,76.9
2018-02-10T08:24:40.273Z,77.2
2018-02-10T08:25:40.940Z,77.2
2018-02-10T08:26:41.641Z,76.9
2018-02-10T08:27:42.306Z,76.9
2018-02-10T08:28:42.970Z,76.9
2018-02-10T08:29:43.636Z,76.7
2018-02-10T08:30:44.298Z,76.1
2018-02-10T08:31:44.962Z,76.2
2018-02-10T08:32:45.626Z,75.8
2018-02-10T08:33:46.330Z,75.8
2018-02-10T08:34:46.995Z,75.6
2018-02-10T08:35:47.658Z,75.5
2018-02-10T08:36:48.324Z,75.5
2018-02-10T08:37:48.989Z,74.7
2018-02-10T08:38:49.654Z,74.4
2018-02-10T08:39:50.320Z,73.9
2018-02-10T08:40:50.985Z,73.3
2018-02-10T08:41:51.652Z,73.3
2018-02-10T08:42:52.316Z,73.1
2018-02-10T08:43:53.021Z,73.4
2018-02-10T08:44:53.686Z,73.3
2018-02-10T08:45:54.351Z,73.6
2018-02-10T08:46:55.016Z,73.9
2018-02-10T08:47:55.684Z,73.4
2018-02-10T08:48:56.347Z,72.8
2018-02-10T08:49:57.011Z,73.1
2018-02-10T08:50:57.675Z,73.5
2018-02-10T08:51:58.341Z,73.2
2018-02-10T08:52:59.055Z,73.7
2018-02-10T08:53:59.721Z,73.9
2018-02-10T08:55:00.386Z,74.0
2018-02-10T08:56:01.049Z,74.2
2018-02-10T08:57:01.713Z,74.0
2018-02-10T08:58:02.379Z,74.5
2018-02-10T08:59:03.043Z,74.7
2018-02-10T09:00:03.706Z,74.9
2018-02-10T09:01:04.419Z,75.1
2018-02-10T09:02:05.035Z,75.5
2018-02-10T09:03:05.699Z,75.4
2018-02-10T09:04:06.362Z,74.7
2018-02-10T09:05:07.029Z,75.0
2018-02-10T09:06:07.692Z,74.9
2018-02-10T09:07:08.356Z,75.1
2018-02-10T09:08:09.020Z,75.3
2018-02-10T09:09:09.686Z,76.2
2018-02-10T09:10:10.352Z,75.5
2018-02-10T09:11:11.016Z,76.0
2018-02-10T09:12:11.704Z,75.9
2018-02-10T09:13:12.345Z,75.8
2018-02-10T09:14:13.008Z,76.0
2018-02-10T09:15:13.672Z,76.3
2018-02-10T09:16:14.339Z,76.3
2018-02-10T09:17:15.044Z,76.8
2018-02-10T09:18:15.705Z,76.2
2018-02-10T09:19:16.370Z,75.8
2018-02-10T09:20:17.034Z,76.2
2018-02-10T09:21:17.697Z,75.8
2018-02-10T09:22:18.360Z,75.6
2018-02-10T09:23:19.076Z,75.0
2018-02-10T09:24:19.739Z,74.8
2018-02-10T09:25:20.403Z,74.7
2018-02-10T09:26:21.067Z,74.5
2018-02-10T09:27:21.730Z,74.7
2018-02-10T09:28:22.393Z,75.0
2018-02-10T09:29:23.057Z,74.7
2018-02-10T09:30:23.722Z,74.5
2018-02-10T09:31:24.386Z,74.1
2018-02-10T09:32:25.086Z,73.9
2018-02-10T09:33:25.750Z,73.6
2018-02-10T09:34:26.414Z,73.5
2018-02-10T09:35:27.078Z,73.0
2018-02-10T09:36:27.742Z,73.3
2018-02-10T09:37:28.406Z,73.3
2018-02-10T09:38:29.071Z,73.0
2018-02-10T09:39:29.735Z,72.2
2018-02-10T09:40:30.403Z,72.3
2018-02-10T09:41:31.101Z,72.2
2018-02-10T09:42:31.767Z,72.3
2018-02-10T09:43:32.469Z,72.2
2018-02-10T09:44:33.132Z,72.6
2018-02-10T09:45:33.836Z,71.7
2018-02-10T09:46:34.501Z,71.0
2018-02-10T09:47:35.169Z,70.5
2018-02-10T09:48:35.833Z,70.5
2018-02-10T09:49:36.512Z,70.1
2018-02-10T09:50:37.164Z,69.7
2018-02-10T09:51:37.830Z,69.4
2018-02-10T09:52:38.493Z,70.1
2018-02-10T09:53:39.160Z,70.4
2018-02-10T09:54:39.826Z,69.9
2018-02-10T09:55:40.491Z,69.6
2018-02-10T09:56:41.157Z,69.5
2018-02-10T09:57:41.821Z,70.1
2018-02-10T09:58:42.486Z,69.9
2018-02-10T09:59:43.152Z,70.1
2018-02-10T10:00:43.818Z,70.0
2018-02-10T10:01:44.522Z,70.1
2018-02-10T10:02:45.148Z,70.1
2018-02-10T10:03:45.813Z,70.1
2018-02-10T10:04:46.478Z,69.7
2018-02-10T10:05:47.145Z,69.8
2018-02-10T10:06:47.812Z,68.9
2018-02-10T10:07:48.477Z,68.5
2018-02-10T10:08:49.143Z,68.9
2018-02-10T10:09:49.808Z,69.0
2018-02-10T10:10:50.472Z,69.1
2018-02-10T10:11:51.140Z,68.8
2018-02-10T10:12:51.806Z,69.4
2018-02-10T10:13:52.510Z,69.5
2018-02-10T10:14:53.176Z,69.7
2018-02-10T10:15:53.842Z,69.5
2018-02-10T10:16:54.508Z,68.9
2018-02-10T10:17:55.174Z,68.9
2018-02-10T10:18:55.840Z,68.4
2018-02-10T10:19:56.506Z,68.9
2018-02-10T10:20:57.172Z,68.4
2018-02-10T10:21:57.838Z,68.5
2018-02-10T10:22:58.503Z,68.6
2018-02-10T10:23:59.170Z,69.1
2018-02-10T10:24:59.838Z,68.9
2018-02-10T10:26:00.503Z,68.5
2018-02-10T10:27:01.170Z,68.6
2018-02-10T10:28:01.836Z,68.9
2018-02-10T10:29:02.502Z,69.0
2018-02-10T10:30:03.168Z,68.9
2018-02-10T10:31:03.834Z,68.6
2018-02-10T10:32:04.501Z,68.6
2018-02-10T10:33:05.165Z,69.0
2018-02-10T10:34:05.832Z,68.9
2018-02-10T10:35:06.580Z,69.2
2018-02-10T10:36:07.198Z,68.9
2018-02-10T10:37:07.870Z,69.2
2018-02-10T10:38:08.573Z,69.1
2018-02-10T10:39:09.241Z,69.0
2018-02-10T10:40:09.907Z,69.1
2018-02-10T10:41:10.570Z,68.5
2018-02-10T10:42:11.236Z,68.6
2018-02-10T10:43:11.903Z,68.3
2018-02-10T10:44:12.570Z,68.9
2018-02-10T10:45:13.237Z,68.7
2018-02-10T10:46:13.903Z,68.2
2018-02-10T10:47:14.571Z,68.5
2018-02-10T10:48:15.236Z,68.9
2018-02-10T10:49:15.904Z,69.3
2018-02-10T10:50:16.572Z,68.9
2018-02-10T10:51:17.275Z,69.3
2018-02-10T10:52:17.942Z,69.2
2018-02-10T10:53:18.608Z,69.0
2018-02-10T10:54:19.273Z,68.9
2018-02-10T10:55:19.939Z,68.5
2018-02-10T10:56:20.607Z,68.9
2018-02-10T10:57:21.295Z,68.9
2018-02-10T10:58:21.937Z,68.9
2018-02-10T10:59:22.604Z,69.0
2018-02-10T11:00:23.269Z,68.7
2018-02-10T11:01:23.936Z,68.7
2018-02-10T11:02:24.608Z,68.8
2018-02-10T11:03:25.269Z,68.7
2018-02-10T11:04:25.935Z,68.8
2018-02-10T11:05:26.604Z,68.6
2018-02-10T11:06:27.270Z,68.7
2018-02-10T11:07:27.972Z,68.9
2018-02-10T11:08:28.638Z,68.2
2018-02-10T11:09:29.306Z,67.9
2018-02-10T11:10:29.976Z,67.6
2018-02-10T11:11:30.644Z,66.9
2018-02-10T11:12:31.308Z,66.6
2018-02-10T11:13:31.974Z,65.9
2018-02-10T11:14:32.643Z,65.7
2018-02-10T11:15:33.310Z,65.0
2018-02-10T11:16:34.022Z,64.7
2018-02-10T11:17:34.682Z,64.6
2018-02-10T11:18:35.352Z,64.3
2018-02-10T11:19:36.102Z,64.5
2018-02-10T11:20:36.770Z,64.3
2018-02-10T11:21:37.438Z,63.8
2018-02-10T11:22:38.105Z,63.5
2018-02-10T11:23:38.772Z,63.4
2018-02-10T11:24:39.440Z,63.4
2018-02-10T11:25:40.106Z,62.8
2018-02-10T11:26:40.775Z,62.9
2018-02-10T11:27:41.443Z,62.4
2018-02-10T11:28:42.115Z,62.9
2018-02-10T11:29:42.777Z,62.2
2018-02-10T11:30:43.444Z,62.2
2018-02-10T11:31:44.111Z,62.8
2018-02-10T11:32:44.785Z,62.7
2018-02-10T11:33:45.449Z,62.4
2018-02-10T11:34:46.115Z,62.7
2018-02-10T11:35:46.785Z,62.0
2018-02-10T11:36:47.488Z,62.0
2018-02-10T11:37:48.156Z,62.5
2018-02-10T11:38:48.823Z,62.3
2018-02-10T11:39:49.493Z,62.5
2018-02-10T11:40:50.203Z,62.7
2018-02-10T11:41:50.871Z,61.9
2018-02-10T11:42:51.540Z,61.9
2018-02-10T11:43:52.207Z,62.1
2018-02-10T11:44:52.874Z,62.0
2018-02-10T11:45:53.543Z,62.6
2018-02-10T11:46:54.241Z,62.4
2018-02-10T11:47:54.881Z,62.5
2018-02-10T11:48:55.550Z,62.1
2018-02-10T11:49:56.217Z,62.2
2018-02-10T11:50:56.887Z,62.5
2018-02-10T11:51:57.557Z,62.4
2018-02-10T11:52:58.224Z,61.9
2018-02-10T11:53:58.892Z,62.1
2018-02-10T11:54:59.561Z,61.7
2018-02-10T11:56:00.229Z,61.6
2018-02-10T11:57:00.898Z,61.1
2018-02-10T11:58:01.567Z,61.1
2018-02-10T11:59:02.236Z,60.7
2018-02-10T12:00:02.904Z,61.1
2018-02-10T12:01:03.575Z,61.2
2018-02-10T12:02:04.244Z,61.9
2018-02-10T12:03:04.914Z,61.6
2018-02-10T12:04:05.578Z,61.7
2018-02-10T12:05:06.243Z,61.6
2018-02-10T12:06:06.911Z,61.9
2018-02-10T12:07:07.579Z,62.1
2018-02-10T12:08:08.250Z,61.9
2018-02-10T12:09:08.917Z,62.9
2018-02-10T12:10:09.592Z,62.6
2018-02-10T12:11:10.257Z,62.9
2018-02-10T12:12:10.926Z,62.9
2018-02-10T12:13:11.594Z,63.4
2018-02-10T12:14:12.264Z,63.8
2018-02-10T12:15:12.932Z,64.1
2018-02-10T12:16:13.602Z,64.3
2018-02-10T12:17:14.273Z,64.5
2018-02-10T12:18:14.939Z,64.2
2018-02-10T12:19:15.608Z,64.2
2018-02-10T12:20:16.282Z,64.6
2018-02-10T12:21:16.949Z,64.5
2018-02-10T12:22:17.655Z,64.9
2018-02-10T12:23:18.323Z,64.7
2018-02-10T12:24:18.990Z,65.3
2018-02-10T12:25:19.722Z,64.9
2018-02-10T12:26:20.355Z,65.5
2018-02-10T12:27:21.026Z,65.6
2018-02-10T12:28:21.695Z,66.0
2018-02-10T12:29:22.398Z,66.5
2018-02-10T12:30:23.066Z,66.5
2018-02-10T12:31:23.735Z,66.6
2018-02-10T12:32:24.402Z,66.7
2018-02-10T12:33:25.069Z,67.1
2018-02-10T12:34:25.738Z,67.3
2018-02-10T12:35:26.404Z,67.6
2018-02-10T12:36:27.074Z,67.6
2018-02-10T12:37:27.780Z,67.7
2018-02-10T12:38:28.449Z,68.0
2018-02-10T12:39:29.116Z,68.4
2018-02-10T12:40:29.784Z,68.4
2018-02-10T12:41:30.452Z,68.8
2018-02-10T12:42:31.119Z,69.0
2018-02-10T12:43:31.788Z,69.0
2018-02-10T12:44:32.458Z,68.4
2018-02-10T12:45:33.124Z,68.6
2018-02-10T12:46:33.793Z,69.3
2018-02-10T12:47:34.461Z,69.2
2018-02-10T12:48:35.132Z,69.9
2018-02-10T12:49:35.797Z,69.5
2018-02-10T12:50:36.469Z,69.6
2018-02-10T12:51:37.132Z,69.8
2018-02-10T12:52:37.800Z,70.0
2018-02-10T12:53:38.467Z,69.6
2018-02-10T12:54:39.134Z,69.5
2018-02-10T12:55:39.803Z,69.3
2018-02-10T12:56:40.471Z,69.4
2018-02-10T12:57:41.176Z,69.9
2018-02-10T12:58:41.844Z,69.6
2018-02-10T12:59:42.512Z,69.8
2018-02-10T13:00:43.179Z,70.1
2018-02-10T13:01:43.847Z,70.1
2018-02-10T13:02:44.515Z,70.2
2018-02-10T13:03:45.182Z,69.7
2018-02-10T13:04:45.850Z,69.6
2018-02-10T13:05:46.517Z,69.7
2018-02-10T13:06:47.185Z,70.2
2018-02-10T13:07:47.852Z,70.3
2018-02-10T13:08:48.523Z,70.2
2018-02-10T13:09:49.191Z,70.3
2018-02-10T13:10:49.860Z,70.3
2018-02-10T13:11:50.563Z,70.8
2018-02-10T13:12:51.230Z,70.2
2018-02-10T13:13:51.899Z,70.1
2018-02-10T13:14:52.568Z,70.2
2018-02-10T13:15:53.234Z,69.9
2018-02-10T13:16:53.902Z,70.2
2018-02-10T13:17:54.570Z,70.2
2018-02-10T13:18:55.237Z,70.3
2018-02-10T13:19:55.906Z,70.0
2018-02-10T13:20:56.573Z,70.2
2018-02-10T13:21:57.240Z,70.3
2018-02-10T13:22:57.948Z,70.4
2018-02-10T13:23:58.617Z,70.5
2018-02-10T13:24:59.285Z,71.0
2018-02-10T13:25:59.988Z,70.8
2018-02-10T13:27:00.655Z,70.6